Time;durP1;ratioP1;P1;durP2;ratioP2;P2;SDS_P1;SDS_P2;PMS_P1;PMS_P2;Temp;Humidity;BMP_temperature;BMP_pressure;BME280_temperature;BME280_humidity;BME280_pressure;Samples;Min_cycle;Max_cycle;Signal;HPM_P1;HPM_P2
2022/12/20 00:01:18;;;;;;;7.80;7.10;;;;;;;2.60;100.00;96547.16;5062319;28;20044;-65
2022/12/20 00:03:44;;;;;;;7.43;6.47;;;;;;;2.47;100.00;96546.88;5064109;28;20032;-65
2022/12/20 00:06:11;;;;;;;8.98;7.97;;;;;;;2.59;100.00;96546.28;5060762;28;20116;-65
2022/12/20 00:08:37;;;;;;;10.15;8.45;;;;;;;2.65;100.00;96540.81;5061436;28;20116;-65
2022/12/20 00:11:05;;;;;;;11.27;8.95;;;;;;;2.65;100.00;96548.63;5060453;28;21085;-65
2022/12/20 00:13:31;;;;;;;13.57;10.35;;;;;;;2.70;100.00;96553.59;5060939;28;20041;-63
2022/12/20 00:16:26;;;;;;;12.05;9.80;;;;;;;2.53;100.00;96555.22;5063113;28;20037;-62
2022/12/20 00:18:55;;;;;;;13.50;9.45;;;;;;;2.42;100.00;96544.47;5064270;28;20032;-63
2022/12/20 00:21:21;;;;;;;14.93;10.10;;;;;;;2.31;100.00;96551.91;5059573;28;20033;-63
2022/12/20 00:23:47;;;;;;;13.75;9.75;;;;;;;2.23;100.00;96545.31;5060314;28;20566;-63
2022/12/20 00:26:15;;;;;;;11.27;9.45;;;;;;;2.11;100.00;96548.50;5063145;28;20079;-63
2022/12/20 00:28:41;;;;;;;11.18;8.63;;;;;;;2.09;100.00;96539.88;5063179;28;20851;-63
2022/12/20 00:31:09;;;;;;;9.57;7.75;;;;;;;2.12;100.00;96543.22;5067887;28;20051;-61
2022/12/20 00:33:36;;;;;;;10.30;8.43;;;;;;;2.07;100.00;96544.31;5065063;28;20056;-61
2022/12/20 00:36:02;;;;;;;11.20;9.40;;;;;;;2.03;100.00;96535.84;5067628;28;20115;-65
2022/12/20 00:38:27;;;;;;;10.23;8.18;;;;;;;1.96;100.00;96535.25;5066222;28;20107;-64
2022/12/20 00:41:02;;;;;;;8.10;7.30;;;;;;;1.89;100.00;96540.78;5064680;28;20544;-65
2022/12/20 00:43:28;;;;;;;8.15;6.72;;;;;;;1.90;100.00;96543.34;5067336;28;20044;-65
2022/12/20 00:45:54;;;;;;;7.80;6.60;;;;;;;1.95;100.00;96540.50;5065636;28;20415;-65
2022/12/20 00:48:19;;;;;;;9.35;7.10;;;;;;;2.08;100.00;96546.84;5066208;28;20035;-65
2022/12/20 00:50:45;;;;;;;10.13;6.70;;;;;;;2.03;100.00;96548.81;5069574;28;20505;-65
2022/12/20 00:53:10;;;;;;;8.57;6.13;;;;;;;1.97;100.00;96536.94;5070001;28;20041;-61
2022/12/20 00:55:45;;;;;;;9.18;6.75;;;;;;;1.96;100.00;96547.38;5063435;28;20119;-61
2022/12/20 00:58:11;;;;;;;18.98;17.00;;;;;;;1.95;100.00;96548.31;5063891;28;20051;-61
2022/12/20 01:00:38;;;;;;;14.23;11.90;;;;;;;1.93;100.00;96543.19;5050350;28;20448;-60
2022/12/20 01:03:04;;;;;;;13.93;12.07;;;;;;;1.88;100.00;96547.75;5068358;28;20047;-61
2022/12/20 01:05:29;;;;;;;14.23;10.50;;;;;;;1.76;100.00;96546.50;5068340;28;20037;-61
2022/12/20 01:07:54;;;;;;;12.10;9.13;;;;;;;1.74;100.00;96542.31;5066332;28;20082;-61
2022/12/20 01:10:20;;;;;;;9.75;8.75;;;;;;;1.76;100.00;96546.50;5068887;28;20406;-68
2022/12/20 01:12:45;;;;;;;12.00;9.00;;;;;;;1.88;100.00;96546.91;5068383;28;20112;-57
2022/12/20 01:15:11;;;;;;;9.38;8.30;;;;;;;1.85;100.00;96547.84;5069543;28;20043;-65
2022/12/20 01:17:36;;;;;;;8.43;7.25;;;;;;;1.84;100.00;96544.44;5068511;28;20043;-65
2022/12/20 01:20:03;;;;;;;10.45;7.75;;;;;;;1.80;100.00;96549.81;5057967;28;20037;-65
2022/12/20 01:22:28;;;;;;;6.95;5.78;;;;;;;1.69;100.00;96537.31;5065138;28;20049;-65
2022/12/20 01:24:54;;;;;;;8.50;7.57;;;;;;;1.70;100.00;96539.84;5067532;28;20417;-65
2022/12/20 01:27:19;;;;;;;13.43;9.57;;;;;;;1.69;100.00;96534.72;5066540;28;20051;-65
2022/12/20 01:29:44;;;;;;;10.82;8.80;;;;;;;1.68;100.00;96536.47;5066995;28;20086;-62
2022/12/20 01:32:10;;;;;;;9.38;8.02;;;;;;;1.60;100.00;96530.75;5063647;28;20044;-62
2022/12/20 01:34:35;;;;;;;9.82;8.52;;;;;;;1.54;100.00;96531.03;5065402;28;20146;-67
2022/12/20 01:37:00;;;;;;;14.23;9.88;;;;;;;1.52;100.00;96528.47;5066295;28;20044;-68
2022/12/20 01:39:26;;;;;;;11.35;8.82;;;;;;;1.50;100.00;96522.50;5063656;28;20033;-68
2022/12/20 01:41:51;;;;;;;10.57;8.35;;;;;;;1.41;100.00;96526.34;5066836;28;20056;-68
2022/12/20 01:44:16;;;;;;;11.27;8.13;;;;;;;1.36;100.00;96524.88;5064996;28;20059;-68
2022/12/20 01:46:43;;;;;;;9.00;8.10;;;;;;;1.28;100.00;96530.38;5068215;28;20060;-68
2022/12/20 01:49:09;;;;;;;10.48;7.57;;;;;;;1.27;100.00;96528.69;5067512;28;20036;-61
2022/12/20 01:51:44;;;;;;;8.77;7.65;;;;;;;1.32;100.00;96531.06;5066767;28;20028;-70
2022/12/20 01:54:24;;;;;;;9.65;8.15;;;;;;;1.27;100.00;96523.50;5066938;28;20044;-62
2022/12/20 01:56:54;;;;;;;10.65;9.25;;;;;;;1.27;100.00;96518.31;5068076;28;20029;-62
2022/12/20 01:59:19;;;;;;;14.05;11.63;;;;;;;1.36;100.00;96517.09;5062769;28;20442;-62
2022/12/20 02:01:45;;;;;;;13.35;11.15;;;;;;;1.27;100.00;96523.50;5066545;28;20119;-63
2022/12/20 02:04:10;;;;;;;11.23;9.98;;;;;;;1.20;100.00;96522.91;5064015;28;20064;-62
2022/12/20 02:06:36;;;;;;;13.45;11.18;;;;;;;1.17;100.00;96512.66;5068136;28;20048;-62
2022/12/20 02:09:03;;;;;;;10.85;9.10;;;;;;;1.13;100.00;96517.13;5067610;28;20056;-62
2022/12/20 02:11:49;;;;;;;9.52;8.52;;;;;;;1.20;100.00;96509.09;5062575;28;20037;-61
2022/12/20 02:14:18;;;;;;;;;;;;;;;1.19;100.00;96515.19;5067849;28;20119;-61
2022/12/20 02:16:57;;;;;;;12.82;10.02;;;;;;;1.19;100.00;96510.00;5063656;28;20003;-61
2022/12/20 02:20:00;;;;;;;10.02;9.00;;;;;;;1.32;100.00;96508.59;5067681;28;20035;-61
2022/12/20 02:22:59;;;;;;;9.13;8.15;;;;;;;1.26;100.00;96506.25;5063257;28;20040;-61
2022/12/20 02:25:50;;;;;;;7.75;7.05;;;;;;;1.32;100.00;96499.94;5064887;28;20155;-61
2022/12/20 02:28:30;;;;;;;10.40;7.97;;;;;;;1.35;100.00;96505.84;5059847;28;20085;-65
2022/12/20 02:30:59;;;;;;;8.40;7.47;;;;;;;1.23;100.00;96490.81;5065260;28;20047;-57
2022/12/20 02:33:27;;;;;;;8.90;7.18;;;;;;;1.19;100.00;96481.47;5066326;28;20048;-58
2022/12/20 02:35:52;;;;;;;9.13;7.13;;;;;;;1.17;100.00;96486.72;5067728;28;20099;-55
2022/12/20 02:38:33;;;;;;;7.88;7.18;;;;;;;1.21;100.00;96490.88;5067412;28;20043;-56
2022/12/20 02:41:07;;;;;;;8.02;6.90;;;;;;;1.17;100.00;96484.13;5067975;28;20031;-57
2022/12/20 02:46:23;;;;;;;7.75;6.15;;;;;;;1.18;100.00;96472.00;5065184;28;20052;-67
2022/12/20 02:48:51;;;;;;;6.93;6.32;;;;;;;1.16;100.00;96464.28;5065188;28;20060;-68
2022/12/20 02:51:18;;;;;;;9.63;6.50;;;;;;;1.18;100.00;96464.22;5064595;28;20090;-68
2022/12/20 02:53:44;;;;;;;6.13;5.50;;;;;;;1.29;100.00;96467.19;5061337;28;20036;-67
2022/12/20 02:56:39;;;;;;;9.32;5.90;;;;;;;1.32;100.00;96474.00;5065082;28;20422;-68
2022/12/20 02:59:17;;;;;;;5.90;5.30;;;;;;;1.51;100.00;96471.47;5066802;28;20086;-68
2022/12/20 03:01:53;;;;;;;6.03;5.40;;;;;;;1.55;100.00;96473.00;5065586;28;20506;-68
2022/12/20 03:04:22;;;;;;;6.10;5.53;;;;;;;1.40;100.00;96471.94;5065371;28;20159;-67
2022/12/20 03:07:06;;;;;;;6.88;6.15;;;;;;;1.29;100.00;96477.59;5066899;28;20036;-63
2022/12/20 03:09:35;;;;;;;11.27;8.95;;;;;;;1.31;100.00;96480.94;5068589;28;20067;-61
2022/12/20 03:12:01;;;;;;;12.55;8.75;;;;;;;1.37;100.00;96482.44;5071499;28;20040;-61
2022/12/20 03:14:27;;;;;;;12.32;9.73;;;;;;;1.34;100.00;96480.00;5071597;28;20051;-61
2022/12/20 03:16:52;;;;;;;12.05;9.95;;;;;;;1.24;100.00;96479.53;5067048;28;20036;-61
2022/12/20 03:19:18;;;;;;;12.55;9.57;;;;;;;1.11;100.00;96471.44;5068701;28;20037;-61
2022/12/20 03:21:44;;;;;;;12.40;9.70;;;;;;;1.03;100.00;96469.16;5071332;28;20104;-61
2022/12/20 03:24:10;;;;;;;12.75;9.85;;;;;;;0.98;100.00;96469.34;5068942;28;20043;-61
2022/12/20 03:26:36;;;;;;;12.98;9.75;;;;;;;0.93;100.00;96460.91;5070557;28;20391;-62
2022/12/20 03:29:02;;;;;;;11.95;10.20;;;;;;;0.93;100.00;96471.28;5070199;28;20045;-71
2022/12/20 03:31:27;;;;;;;12.00;10.73;;;;;;;0.92;100.00;96458.38;5068131;28;20089;-70
2022/12/20 03:33:53;;;;;;;13.30;11.70;;;;;;;0.91;100.00;96459.28;5067993;28;20115;-70
2022/12/20 03:36:22;;;;;;;10.52;9.43;;;;;;;0.80;100.00;96455.41;5068213;28;20040;-70
2022/12/20 03:38:48;;;;;;;10.40;8.68;;;;;;;0.88;100.00;96446.44;5065101;28;20068;-70
2022/12/20 03:41:13;;;;;;;11.75;10.50;;;;;;;0.88;100.00;96449.88;5070049;28;20529;-70
2022/12/20 03:43:39;;;;;;;7.78;6.90;;;;;;;1.06;100.00;96452.59;5069570;28;20041;-70
2022/12/20 03:46:04;;;;;;;21.65;19.48;;;;;;;1.00;100.00;96464.09;5070312;28;20556;-61
2022/12/20 03:48:30;;;;;;;11.82;9.10;;;;;;;0.99;100.00;96467.56;5068830;28;20135;-64
2022/12/20 03:50:55;;;;;;;7.03;6.32;;;;;;;1.07;100.00;96468.13;5071194;28;20622;-65
2022/12/20 03:53:20;;;;;;;6.28;5.63;;;;;;;1.00;100.00;96462.34;5066219;28;20037;-65
2022/12/20 03:55:46;;;;;;;6.82;5.15;;;;;;;0.90;100.00;96467.97;5068539;28;20048;-64
2022/12/20 03:58:11;;;;;;;5.60;5.10;;;;;;;1.01;100.00;96460.59;5069767;28;20063;-65
2022/12/20 04:00:36;;;;;;;5.63;5.03;;;;;;;1.18;100.00;96459.03;5068712;28;20093;-65
2022/12/20 04:03:02;;;;;;;6.93;5.65;;;;;;;1.21;100.00;96457.16;5069723;28;20059;-65
2022/12/20 04:05:27;;;;;;;7.53;5.85;;;;;;;1.10;100.00;96464.53;5069184;28;20644;-65
2022/12/20 04:07:52;;;;;;;8.45;5.60;;;;;;;1.29;100.00;96452.47;5068633;28;20163;-55
2022/12/20 04:10:18;;;;;;;6.90;6.20;;;;;;;1.28;100.00;96455.97;5067648;28;20112;-55
2022/12/20 04:12:43;;;;;;;5.05;4.55;;;;;;;1.21;100.00;96443.31;5068531;28;20036;-57
2022/12/20 04:15:09;;;;;;;6.40;4.63;;;;;;;1.31;100.00;96444.63;5069547;28;20048;-56
2022/12/20 04:17:34;;;;;;;8.27;7.45;;;;;;;1.34;100.00;96447.09;5067566;28;20039;-56
2022/12/20 04:20:17;;;;;;;11.25;10.15;;;;;;;1.38;100.00;96451.22;5064793;28;20064;-56
2022/12/20 04:22:46;;;;;;;8.30;7.38;;;;;;;1.38;100.00;96448.63;5067889;28;20491;-61
2022/12/20 04:25:12;;;;;;;7.53;5.53;;;;;;;1.37;100.00;96438.34;5069111;28;20036;-70
2022/12/20 04:27:37;;;;;;;5.25;4.85;;;;;;;1.41;100.00;96437.28;5068457;28;20043;-57
2022/12/20 04:30:03;;;;;;;6.13;4.85;;;;;;;1.39;100.00;96429.56;5067516;28;20410;-56
2022/12/20 04:32:28;;;;;;;5.30;4.80;;;;;;;1.39;100.00;96434.75;5068058;28;20374;-56
2022/12/20 04:34:53;;;;;;;5.90;5.32;;;;;;;1.41;100.00;96438.13;5065401;28;20546;-57
2022/12/20 04:37:19;;;;;;;6.97;4.72;;;;;;;1.39;100.00;96439.09;5065089;28;20033;-55
2022/12/20 04:39:44;;;;;;;5.45;5.05;;;;;;;1.48;100.00;96451.66;5068978;28;20052;-57
2022/12/20 04:42:09;;;;;;;5.20;4.53;;;;;;;1.46;100.00;96444.88;5066707;28;20080;-61
2022/12/20 04:44:35;;;;;;;4.80;4.15;;;;;;;1.38;100.00;96448.63;5068541;28;20505;-64
2022/12/20 04:47:00;;;;;;;5.00;4.60;;;;;;;1.46;100.00;96443.13;5065461;28;20469;-57
2022/12/20 04:49:25;;;;;;;4.30;3.90;;;;;;;1.39;100.00;96446.91;5067711;28;20050;-55
2022/12/20 04:51:51;;;;;;;5.72;3.83;;;;;;;1.37;100.00;96436.56;5065691;28;20032;-56
2022/12/20 04:54:16;;;;;;;4.47;4.07;;;;;;;1.32;100.00;96441.13;5069843;28;20068;-57
2022/12/20 04:56:41;;;;;;;7.47;3.88;;;;;;;1.41;100.00;96456.28;5063111;28;20036;-56
2022/12/20 04:59:07;;;;;;;4.30;4.00;;;;;;;1.40;100.00;96451.19;5068186;28;20032;-59
2022/12/20 05:01:32;;;;;;;5.25;4.28;;;;;;;1.41;100.00;96455.44;5064709;28;20105;-68
2022/12/20 05:03:58;;;;;;;5.35;4.60;;;;;;;1.53;100.00;96461.84;5065352;28;20123;-61
2022/12/20 05:06:23;;;;;;;4.50;4.10;;;;;;;1.55;100.00;96470.41;5069818;28;20044;-61
2022/12/20 05:08:48;;;;;;;4.78;4.38;;;;;;;1.52;100.00;96452.38;5069870;28;20033;-61
2022/12/20 05:11:14;;;;;;;3.78;3.38;;;;;;;1.51;100.00;96464.50;5066581;28;20038;-61
2022/12/20 05:13:40;;;;;;;5.65;3.65;;;;;;;1.69;100.00;96449.03;5069844;28;20044;-61
2022/12/20 05:16:06;;;;;;;3.72;3.42;;;;;;;1.68;100.00;96461.19;5067789;28;20099;-61
2022/12/20 05:18:31;;;;;;;3.75;3.30;;;;;;;1.71;100.00;96455.84;5064163;28;20047;-61
2022/12/20 05:26:30;;;;;;;4.43;3.33;;;;;;;1.79;100.00;96458.13;5064018;28;20044;-64
2022/12/20 05:28:56;;;;;;;4.72;3.78;;;;;;;1.74;100.00;96467.00;5067566;28;20054;-65
2022/12/20 05:31:21;;;;;;;4.60;4.22;;;;;;;1.67;100.00;96463.84;5068922;28;20561;-65
2022/12/20 05:33:46;;;;;;;4.60;4.20;;;;;;;1.66;100.00;96455.22;5067745;28;20043;-64
2022/12/20 05:36:12;;;;;;;7.38;6.65;;;;;;;1.68;100.00;96447.34;5066133;28;20040;-64
2022/12/20 05:38:37;;;;;;;6.68;6.18;;;;;;;1.81;100.00;96442.44;5051390;28;20039;-64
2022/12/20 05:41:04;;;;;;;5.10;4.60;;;;;;;1.83;100.00;96440.63;5068626;28;20082;-70
2022/12/20 05:43:30;;;;;;;4.32;3.92;;;;;;;1.92;100.00;96432.44;5068148;28;20248;-70
2022/12/20 05:45:55;;;;;;;4.80;4.40;;;;;;;1.94;100.00;96427.16;5065015;28;20044;-71
2022/12/20 05:48:20;;;;;;;5.03;4.63;;;;;;;2.01;100.00;96425.97;5061030;28;20074;-71
2022/12/20 05:50:46;;;;;;;5.95;4.90;;;;;;;2.07;100.00;96430.00;5067626;28;20497;-71
2022/12/20 05:53:14;;;;;;;6.00;5.47;;;;;;;1.99;100.00;96426.03;5063435;28;20115;-70
2022/12/20 05:55:46;;;;;;;7.03;6.40;;;;;;;1.95;100.00;96427.09;5067480;28;20494;-70
2022/12/20 05:58:14;;;;;;;9.25;8.05;;;;;;;1.91;100.00;96432.47;5068047;28;20575;-70
2022/12/20 06:00:41;;;;;;;9.52;8.55;;;;;;;1.81;100.00;96425.13;5062004;28;20034;-57
2022/12/20 06:03:08;;;;;;;11.70;9.75;;;;;;;1.76;100.00;96426.25;5067986;28;20039;-68
2022/12/20 06:05:34;;;;;;;13.77;12.48;;;;;;;1.74;100.00;96433.25;5067904;28;20411;-67
2022/12/20 06:07:59;;;;;;;10.48;9.38;;;;;;;1.75;100.00;96430.56;5060878;28;20093;-67
2022/12/20 06:10:25;;;;;;;10.40;9.30;;;;;;;1.70;100.00;96430.81;5065532;28;20429;-67
2022/12/20 06:12:50;;;;;;;9.55;8.65;;;;;;;1.70;100.00;96424.75;5066557;28;20535;-66
2022/12/20 06:15:16;;;;;;;10.57;9.68;;;;;;;1.78;100.00;96429.59;5067940;28;20028;-67
2022/12/20 06:17:41;;;;;;;12.52;11.23;;;;;;;1.93;100.00;96425.47;5066135;28;20048;-68
2022/12/20 06:20:07;;;;;;;9.98;8.98;;;;;;;1.80;100.00;96418.25;5063745;28;20075;-64
2022/12/20 06:22:33;;;;;;;9.70;8.55;;;;;;;1.75;100.00;96402.00;5066703;28;20037;-62
2022/12/20 06:24:58;;;;;;;12.60;11.40;;;;;;;1.95;100.00;96402.84;5067624;28;20117;-62
2022/12/20 06:27:23;;;;;;;11.45;10.27;;;;;;;2.02;100.00;96406.00;5065225;28;20032;-62
2022/12/20 06:29:53;;;;;;;13.07;10.35;;;;;;;1.96;100.00;96408.00;5065749;28;20028;-62
2022/12/20 06:32:19;;;;;;;8.95;8.13;;;;;;;1.91;100.00;96401.31;5067027;28;20092;-62
2022/12/20 06:34:44;;;;;;;8.75;7.85;;;;;;;1.98;100.00;96403.56;5065357;28;20032;-63
2022/12/20 06:37:10;;;;;;;11.90;10.70;;;;;;;1.95;100.00;96392.47;5064979;28;20407;-61
2022/12/20 06:39:35;;;;;;;11.40;10.20;;;;;;;1.98;100.00;96387.97;5068689;28;20115;-61
2022/12/20 06:42:01;;;;;;;11.10;10.10;;;;;;;1.95;100.00;96389.88;5068494;28;20032;-62
2022/12/20 06:44:26;;;;;;;11.73;8.82;;;;;;;1.89;100.00;96396.22;5068285;28;20170;-63
2022/12/20 06:46:51;;;;;;;10.15;9.15;;;;;;;1.80;100.00;96396.63;5065524;28;20032;-63
2022/12/20 06:49:17;;;;;;;51.95;38.80;;;;;;;1.73;100.00;96392.63;5064791;28;20044;-63
2022/12/20 06:51:42;;;;;;;20.92;18.65;;;;;;;1.85;100.00;96394.66;5065016;28;20029;-62
2022/12/20 06:54:07;;;;;;;10.48;9.48;;;;;;;1.93;100.00;96402.94;5064052;28;20052;-62
2022/12/20 06:56:33;;;;;;;12.35;11.02;;;;;;;1.93;100.00;96402.94;5061787;28;20044;-70
2022/12/20 06:58:58;;;;;;;19.95;13.43;;;;;;;1.88;100.00;96404.91;5060753;28;20170;-70
2022/12/20 07:01:23;;;;;;;7.82;7.07;;;;;;;2.20;100.00;96399.09;5067443;28;20033;-62
2022/12/20 07:03:49;;;;;;;7.50;6.90;;;;;;;2.18;100.00;96407.00;5063993;28;20033;-63
2022/12/20 07:06:14;;;;;;;11.98;10.57;;;;;;;2.27;100.00;96401.34;5061327;28;20420;-62
2022/12/20 07:08:39;;;;;;;8.68;7.88;;;;;;;2.25;100.00;96397.16;5060406;28;20135;-62
2022/12/20 07:11:06;;;;;;;31.75;24.10;;;;;;;2.13;100.00;96408.97;5062003;28;20028;-62
2022/12/20 07:13:31;;;;;;;15.57;13.23;;;;;;;2.20;100.00;96404.31;5062741;28;20033;-62
2022/12/20 07:16:01;;;;;;;6.57;5.80;;;;;;;2.43;100.00;96400.63;5066743;28;20399;-62
2022/12/20 07:18:27;;;;;;;10.00;9.02;;;;;;;2.33;100.00;96410.59;5062982;28;20040;-62
2022/12/20 07:20:53;;;;;;;8.23;7.20;;;;;;;2.37;100.00;96413.91;5063467;28;20039;-60
2022/12/20 07:23:18;;;;;;;7.60;6.70;;;;;;;2.47;100.00;96409.13;5045761;28;20040;-60
2022/12/20 07:25:52;;;;;;;12.32;6.80;;;;;;;2.32;100.00;96418.47;5065146;28;20063;-60
2022/12/20 07:28:17;;;;;;;7.45;6.75;;;;;;;2.35;100.00;96428.75;5061820;28;20048;-60
2022/12/20 07:30:42;;;;;;;7.97;7.13;;;;;;;2.39;100.00;96430.28;5063979;28;20032;-60
2022/12/20 07:33:08;;;;;;;9.07;7.82;;;;;;;2.32;100.00;96434.91;5066486;28;20033;-61
2022/12/20 07:35:33;;;;;;;9.73;8.25;;;;;;;2.57;100.00;96437.19;5064418;28;20041;-64
2022/12/20 07:37:58;;;;;;;12.52;8.60;;;;;;;2.65;100.00;96441.16;5064534;28;20040;-61
2022/12/20 07:40:24;;;;;;;12.43;10.40;;;;;;;2.77;100.00;96442.31;5063057;28;20098;-61
2022/12/20 07:42:49;;;;;;;14.07;11.20;;;;;;;2.77;100.00;96435.38;5064758;28;20028;-61
2022/12/20 07:45:15;;;;;;;10.00;8.98;;;;;;;2.67;100.00;96435.00;5065607;28;20048;-61
2022/12/20 07:47:40;;;;;;;9.55;8.57;;;;;;;2.74;100.00;96426.88;5064961;28;20035;-61
2022/12/20 07:50:06;;;;;;;13.13;9.55;;;;;;;2.70;100.00;96423.56;5057505;28;20060;-61
2022/12/20 07:52:34;;;;;;;24.98;17.50;;;;;;;2.88;100.00;96440.06;5059869;28;20052;-61
2022/12/20 07:55:01;;;;;;;17.27;12.95;;;;;;;2.77;100.00;96435.38;5061688;28;20522;-69
2022/12/20 07:57:58;;;;;;;9.88;8.88;;;;;;;2.92;100.00;96432.91;5059429;28;20028;-60
2022/12/20 08:00:24;;;;;;;12.70;11.40;;;;;;;2.88;100.00;96439.19;5050859;28;20076;-56
2022/12/20 08:03:00;;;;;;;17.35;11.35;;;;;;;2.84;100.00;96444.56;5065558;28;20120;-56
2022/12/20 08:05:26;;;;;;;11.82;10.63;;;;;;;2.86;100.00;96449.66;5060170;28;20060;-56
2022/12/20 08:07:55;;;;;;;13.27;10.80;;;;;;;2.97;100.00;96451.72;5059203;28;20055;-56
2022/12/20 08:10:20;;;;;;;11.43;10.30;;;;;;;3.00;100.00;96438.59;5059226;28;20037;-57
2022/12/20 08:12:47;;;;;;;50.20;30.83;;;;;;;3.08;100.00;96439.03;5066209;28;20037;-56
2022/12/20 08:15:13;;;;;;;28.48;21.13;;;;;;;3.14;100.00;96440.50;5067661;28;20079;-61
2022/12/20 08:17:38;;;;;;;29.65;21.75;;;;;;;3.23;100.00;96449.59;5067199;28;20088;-57
2022/12/20 08:20:05;;;;;;;18.60;16.35;;;;;;;3.40;100.00;96441.75;5067271;28;20028;-57
2022/12/20 08:22:31;;;;;;;64.93;37.95;;;;;;;3.48;100.00;96438.75;5067150;28;20029;-56
2022/12/20 08:24:56;;;;;;;13.02;10.82;;;;;;;3.61;100.00;96425.94;5070691;28;20414;-56
2022/12/20 08:27:22;;;;;;;14.15;12.70;;;;;;;3.64;100.00;96424.94;5069362;28;20060;-55
2022/12/20 08:29:48;;;;;;;11.93;10.80;;;;;;;3.64;100.00;96422.34;5074722;28;20059;-57
2022/12/20 08:32:14;;;;;;;17.30;15.15;;;;;;;3.65;100.00;96413.59;5068797;28;20119;-58
2022/12/20 08:34:40;;;;;;;15.93;13.57;;;;;;;3.66;100.00;96402.25;5068505;28;20052;-72
2022/12/20 08:37:05;;;;;;;14.43;13.02;;;;;;;3.70;100.00;96393.34;5067970;28;20399;-57
2022/12/20 08:39:31;;;;;;;13.57;12.27;;;;;;;3.77;100.00;96383.44;5066417;28;20309;-58
2022/12/20 08:41:56;;;;;;;11.90;10.70;;;;;;;3.82;100.00;96376.22;5065882;28;20064;-58
2022/12/20 08:44:21;;;;;;;29.02;22.85;;;;;;;3.93;100.00;96368.69;5068018;28;20068;-58
2022/12/20 08:46:47;;;;;;;35.10;26.10;;;;;;;4.04;100.00;96372.44;5064441;28;20040;-57
2022/12/20 08:49:12;;;;;;;20.92;17.60;;;;;;;4.13;100.00;96383.19;5066098;28;20039;-58
2022/12/20 08:51:38;;;;;;;15.68;14.18;;;;;;;4.28;100.00;96371.06;5065788;28;20032;-58
2022/12/20 08:54:03;;;;;;;16.63;15.02;;;;;;;4.27;100.00;96364.19;5069063;28;20033;-73
2022/12/20 08:56:28;;;;;;;13.95;12.65;;;;;;;4.41;100.00;96367.78;5066572;28;20159;-65
2022/12/20 08:58:54;;;;;;;14.60;12.75;;;;;;;4.48;100.00;96368.28;5069555;28;20033;-64
2022/12/20 09:01:25;;;;;;;15.65;13.65;;;;;;;4.58;100.00;96379.84;5064181;28;20123;-65
2022/12/20 09:03:51;;;;;;;14.27;12.85;;;;;;;4.60;100.00;96393.63;5060747;28;20524;-65
2022/12/20 09:06:19;;;;;;;11.50;9.73;;;;;;;4.67;100.00;96387.16;5063542;28;20036;-64
2022/12/20 09:08:45;;;;;;;38.05;26.58;;;;;;;4.59;100.00;96398.03;5074246;28;20056;-65
2022/12/20 09:11:20;;;;;;;28.05;19.63;;;;;;;4.66;100.00;96390.69;5073426;28;20036;-64
2022/12/20 09:13:47;;;;;;;10.85;9.73;;;;;;;4.72;100.00;96397.31;5067438;28;20039;-61
2022/12/20 09:16:16;;;;;;;11.27;9.40;;;;;;;4.55;100.00;96409.56;5067259;28;20346;-60
2022/12/20 09:18:41;;;;;;;9.68;8.63;;;;;;;4.53;100.00;96411.44;5067303;28;20037;-63
2022/12/20 09:21:08;;;;;;;10.60;9.60;;;;;;;4.67;100.00;96407.19;5067536;28;20033;-60
2022/12/20 09:23:34;;;;;;;10.15;7.82;;;;;;;4.97;100.00;96407.19;5067824;28;20041;-62
2022/12/20 09:26:02;;;;;;;12.88;9.10;;;;;;;4.73;100.00;96410.28;5054471;28;20045;-62
2022/12/20 09:28:28;;;;;;;9.43;8.43;;;;;;;4.79;100.00;96403.88;5063872;28;20036;-62
2022/12/20 09:30:57;;;;;;;9.43;8.52;;;;;;;4.65;100.00;96401.22;5062680;28;20442;-66
2022/12/20 09:33:23;;;;;;;11.10;9.95;;;;;;;4.81;100.00;96394.19;5066732;28;20044;-56
2022/12/20 09:35:48;;;;;;;9.85;8.52;;;;;;;5.03;100.00;96385.09;5065975;28;20028;-55
2022/12/20 09:38:13;;;;;;;8.68;7.90;;;;;;;5.02;100.00;96380.81;5070852;28;20444;-56
2022/12/20 09:40:45;;;;;;;10.65;8.88;;;;;;;5.15;100.00;96384.34;5066356;28;20176;-54
2022/12/20 09:43:12;;;;;;;14.35;12.32;;;;;;;5.13;99.98;96372.34;5043273;28;20154;-55
2022/12/20 09:45:38;;;;;;;11.68;9.93;;;;;;;5.19;100.00;96363.28;5067198;28;20027;-57
2022/12/20 09:48:04;;;;;;;10.52;8.50;;;;;;;5.32;100.00;96372.06;5068522;28;20062;-56
2022/12/20 09:50:52;;;;;;;13.00;9.98;;;;;;;5.40;100.00;96351.53;5067632;28;20520;-57
2022/12/20 09:53:43;;;;;;;34.67;24.10;;;;;;;5.39;100.00;96342.03;5063510;28;20043;-60
2022/12/20 09:56:14;;;;;;;20.52;14.68;;;;;;;5.41;99.52;96342.78;5060738;28;20040;-55
2022/12/20 09:58:56;;;;;;;10.85;9.43;;;;;;;5.53;100.00;96332.53;5063304;28;20414;-55
2022/12/20 10:01:23;;;;;;;9.27;8.27;;;;;;;5.61;98.78;96326.81;5039401;28;20047;-57
2022/12/20 10:03:50;;;;;;;10.52;9.43;;;;;;;5.66;96.96;96335.22;5064875;28;20036;-57
2022/12/20 10:06:33;;;;;;;14.27;11.30;;;;;;;5.83;95.72;96336.75;5066797;28;20044;-55
2022/12/20 10:09:02;;;;;;;16.05;9.98;;;;;;;6.01;95.28;96346.09;5069061;28;20414;-57
2022/12/20 10:11:49;;;;;;;10.88;9.02;;;;;;;6.33;91.38;96341.53;5066775;28;20037;-67
2022/12/20 10:14:36;;;;;;;11.48;8.13;;;;;;;6.48;91.54;96339.66;5064559;28;20083;-72
2022/12/20 10:17:12;;;;;;;11.00;9.70;;;;;;;6.43;90.80;96345.19;5066763;28;20521;-72
2022/12/20 10:19:56;;;;;;;9.65;7.65;;;;;;;6.28;89.57;96344.41;5066198;28;20044;-73
2022/12/20 10:22:42;;;;;;;8.52;6.93;;;;;;;6.25;91.56;96361.13;5066014;28;20048;-72
2022/12/20 10:25:22;;;;;;;7.20;6.50;;;;;;;6.23;91.06;96363.00;5066649;28;20032;-73
2022/12/20 10:27:51;;;;;;;6.82;6.13;;;;;;;6.43;88.30;96361.75;5062100;28;20060;-67
2022/12/20 10:30:19;;;;;;;7.65;6.85;;;;;;;6.37;90.09;96356.88;5068570;28;20039;-60
2022/12/20 10:32:47;;;;;;;10.63;6.40;;;;;;;6.35;90.97;96358.78;5066328;28;20059;-61
2022/12/20 10:35:24;;;;;;;8.25;7.10;;;;;;;6.41;90.29;96337.47;5066392;28;20064;-61
2022/12/20 10:38:11;;;;;;;9.85;8.15;;;;;;;6.25;88.55;96335.00;5058806;28;20037;-61
2022/12/20 10:40:42;;;;;;;10.35;8.68;;;;;;;6.29;89.01;96340.88;5067395;28;20108;-61
2022/12/20 10:43:16;;;;;;;11.70;10.05;;;;;;;6.34;90.38;96324.88;5064165;28;20533;-61
2022/12/20 10:45:42;;;;;;;10.75;8.05;;;;;;;6.53;89.99;96314.03;5062261;28;20032;-60
2022/12/20 10:48:44;;;;;;;11.73;8.95;;;;;;;6.79;88.33;96319.31;5062639;28;20489;-61
2022/12/20 10:51:11;;;;;;;12.30;8.05;;;;;;;6.94;87.18;96307.81;5020310;28;20543;-62
2022/12/20 10:54:02;;;;;;;14.85;9.30;;;;;;;7.00;87.94;96307.38;5057084;28;20045;-62
2022/12/20 10:56:33;;;;;;;9.90;7.60;;;;;;;7.09;87.67;96290.22;5064092;28;20036;-61
2022/12/20 10:59:14;;;;;;;6.93;6.22;;;;;;;7.13;85.78;96288.22;5065975;28;20056;-62
2022/12/20 11:01:43;;;;;;;6.43;5.82;;;;;;;7.33;85.20;96286.84;5066258;28;20428;-62
2022/12/20 11:04:29;;;;;;;7.07;6.03;;;;;;;7.21;85.36;96275.44;5063072;28;20510;-63
2022/12/20 11:06:55;;;;;;;6.30;5.72;;;;;;;7.46;85.52;96271.09;5066886;28;20090;-60
2022/12/20 11:09:26;;;;;;;11.05;7.93;;;;;;;7.71;85.41;96258.84;5067484;28;20029;-67
2022/12/20 11:12:03;;;;;;;13.30;8.73;;;;;;;8.40;83.35;96267.88;5064422;28;20176;-62
2022/12/20 11:14:30;;;;;;;10.38;8.32;;;;;;;9.00;81.54;96262.56;5045239;28;20045;-62
2022/12/20 11:16:59;;;;;;;6.82;6.13;;;;;;;9.39;80.77;96246.44;5065400;28;20036;-62
2022/12/20 11:19:38;;;;;;;9.50;6.53;;;;;;;9.34;78.74;96245.97;5064015;28;20517;-62
2022/12/20 11:22:31;;;;;;;13.88;9.20;;;;;;;9.03;77.05;96247.38;5041473;28;20243;-62
2022/12/20 11:25:25;;;;;;;16.33;12.38;;;;;;;8.55;76.62;96243.16;5063964;28;20069;-62
2022/12/20 11:28:10;;;;;;;9.65;8.02;;;;;;;8.29;78.96;96231.94;5069425;28;20040;-60
2022/12/20 11:30:56;;;;;;;18.35;12.07;;;;;;;8.18;81.46;96232.75;5069899;28;20120;-60
2022/12/20 11:33:21;;;;;;;13.13;9.25;;;;;;;7.93;83.03;96225.84;5066189;28;20082;-61
2022/12/20 11:36:14;;;;;;;13.27;10.10;;;;;;;7.80;82.44;96223.28;5071380;28;20108;-61
2022/12/20 11:38:48;;;;;;;12.10;10.25;;;;;;;7.56;84.43;96211.00;5067021;28;20064;-60
2022/12/20 11:41:38;;;;;;;12.05;10.10;;;;;;;7.60;85.87;96205.44;5069352;28;20035;-61
2022/12/20 11:44:28;;;;;;;10.35;8.43;;;;;;;7.66;83.08;96209.41;5069625;28;20115;-61
2022/12/20 11:47:27;;;;;;;7.97;7.15;;;;;;;7.54;82.89;96205.03;5067428;28;20124;-58